sensor_id;sensor_type;location;lat;lon;timestamp;pressure;altitude;pressure_sealevel;temperature;humidity
39223;BME280;24936;46.328;11.026;2023-04-29T00:01:07;94269.78;;;8.37;84.16
39223;BME280;24936;46.328;11.026;2023-04-29T00:03:33;94272.66;;;8.34;84.56
39223;BME280;24936;46.328;11.026;2023-04-29T00:05:59;94275.53;;;8.31;84.00
39223;BME280;24936;46.328;11.026;2023-04-29T00:08:25;94272.56;;;8.45;82.87
39223;BME280;24936;46.328;11.026;2023-04-29T00:10:50;94274.44;;;8.54;82.84
39223;BME280;24936;46.328;11.026;2023-04-29T00:13:16;94273.50;;;8.65;82.91
39223;BME280;24936;46.328;11.026;2023-04-29T00:15:42;94269.91;;;8.56;83.84
39223;BME280;24936;46.328;11.026;2023-04-29T00:18:08;94263.50;;;8.49;83.34
39223;BME280;24936;46.328;11.026;2023-04-29T00:20:34;94271.81;;;8.54;83.33
39223;BME280;24936;46.328;11.026;2023-04-29T00:23:01;94276.78;;;8.57;83.17
39223;BME280;24936;46.328;11.026;2023-04-29T00:25:26;94275.31;;;8.65;82.47
39223;BME280;24936;46.328;11.026;2023-04-29T00:27:52;94271.03;;;8.64;83.02
39223;BME280;24936;46.328;11.026;2023-04-29T00:30:17;94268.28;;;8.75;81.58
39223;BME280;24936;46.328;11.026;2023-04-29T00:32:43;94259.75;;;8.83;80.93
39223;BME280;24936;46.328;11.026;2023-04-29T00:35:09;94268.28;;;8.75;81.89
39223;BME280;24936;46.328;11.026;2023-04-29T00:37:34;94274.03;;;8.59;83.07
39223;BME280;24936;46.328;11.026;2023-04-29T00:40:00;94267.78;;;8.50;82.73
39223;BME280;24936;46.328;11.026;2023-04-29T00:42:26;94276.47;;;8.51;83.01
39223;BME280;24936;46.328;11.026;2023-04-29T00:44:53;94275.00;;;8.58;82.19
39223;BME280;24936;46.328;11.026;2023-04-29T00:47:18;94269.34;;;8.63;81.75
39223;BME280;24936;46.328;11.026;2023-04-29T00:49:44;94265.16;;;8.50;82.40
39223;BME280;24936;46.328;11.026;2023-04-29T00:52:10;94268.69;;;8.39;82.54
39223;BME280;24936;46.328;11.026;2023-04-29T00:54:37;94270.03;;;8.34;83.06
39223;BME280;24936;46.328;11.026;2023-04-29T00:57:03;94264.44;;;8.17;84.13
39223;BME280;24936;46.328;11.026;2023-04-29T00:59:30;94267.06;;;7.96;84.94
39223;BME280;24936;46.328;11.026;2023-04-29T01:02:01;94270.53;;;7.96;85.77
39223;BME280;24936;46.328;11.026;2023-04-29T01:04:27;94257.19;;;8.00;84.90
39223;BME280;24936;46.328;11.026;2023-04-29T01:07:03;94250.38;;;7.97;85.70
39223;BME280;24936;46.328;11.026;2023-04-29T01:09:54;94251.22;;;7.98;84.91
39223;BME280;24936;46.328;11.026;2023-04-29T01:17:47;94228.84;;;7.51;86.40
39223;BME280;24936;46.328;11.026;2023-04-29T01:20:15;94238.25;;;7.21;88.15
39223;BME280;24936;46.328;11.026;2023-04-29T01:22:40;94253.19;;;7.09;88.46
39223;BME280;24936;46.328;11.026;2023-04-29T01:25:07;94241.06;;;7.41;86.69
39223;BME280;24936;46.328;11.026;2023-04-29T01:32:47;94236.22;;;7.57;84.34
39223;BME280;24936;46.328;11.026;2023-04-29T01:35:44;94229.88;;;7.39;85.37
39223;BME280;24936;46.328;11.026;2023-04-29T01:41:37;94244.34;;;7.22;86.23
39223;BME280;24936;46.328;11.026;2023-04-29T01:44:01;94235.56;;;7.44;85.65
39223;BME280;24936;46.328;11.026;2023-04-29T01:46:28;94241.56;;;7.56;85.09
39223;BME280;24936;46.328;11.026;2023-04-29T01:48:53;94236.34;;;7.56;85.51
39223;BME280;24936;46.328;11.026;2023-04-29T01:51:19;94242.53;;;7.55;85.63
39223;BME280;24936;46.328;11.026;2023-04-29T01:53:45;94243.16;;;7.47;85.96
39223;BME280;24936;46.328;11.026;2023-04-29T01:56:10;94234.66;;;7.33;86.25
39223;BME280;24936;46.328;11.026;2023-04-29T01:58:36;94232.53;;;7.27;86.33
39223;BME280;24936;46.328;11.026;2023-04-29T02:01:01;94225.13;;;7.32;85.90
39223;BME280;24936;46.328;11.026;2023-04-29T02:03:27;94219.22;;;7.30;86.04
39223;BME280;24936;46.328;11.026;2023-04-29T02:05:53;94220.22;;;7.39;85.78
39223;BME280;24936;46.328;11.026;2023-04-29T02:08:18;94216.28;;;7.45;85.41
39223;BME280;24936;46.328;11.026;2023-04-29T02:10:57;94219.19;;;7.09;86.62
39223;BME280;24936;46.328;11.026;2023-04-29T02:13:23;94216.03;;;6.83;88.23
39223;BME280;24936;46.328;11.026;2023-04-29T02:15:49;94200.97;;;7.08;87.98
39223;BME280;24936;46.328;11.026;2023-04-29T02:18:14;94201.75;;;6.87;88.58
39223;BME280;24936;46.328;11.026;2023-04-29T02:20:40;94194.97;;;6.84;88.88
39223;BME280;24936;46.328;11.026;2023-04-29T02:23:06;94201.91;;;6.74;88.83
39223;BME280;24936;46.328;11.026;2023-04-29T02:25:31;94202.84;;;6.73;89.25
39223;BME280;24936;46.328;11.026;2023-04-29T02:27:57;94196.16;;;6.92;88.03
39223;BME280;24936;46.328;11.026;2023-04-29T02:30:22;94196.44;;;6.77;88.37
39223;BME280;24936;46.328;11.026;2023-04-29T02:32:48;94186.63;;;6.91;87.89
39223;BME280;24936;46.328;11.026;2023-04-29T02:35:13;94181.22;;;7.03;86.76
39223;BME280;24936;46.328;11.026;2023-04-29T02:37:39;94160.28;;;7.03;86.34
39223;BME280;24936;46.328;11.026;2023-04-29T02:40:05;94158.25;;;6.86;86.82
39223;BME280;24936;46.328;11.026;2023-04-29T02:42:30;94158.97;;;6.77;87.77
39223;BME280;24936;46.328;11.026;2023-04-29T02:44:56;94170.03;;;6.69;87.67
39223;BME280;24936;46.328;11.026;2023-04-29T02:47:22;94168.34;;;6.47;88.54
39223;BME280;24936;46.328;11.026;2023-04-29T02:49:49;94179.50;;;6.37;89.31
39223;BME280;24936;46.328;11.026;2023-04-29T02:52:15;94196.16;;;6.36;88.51
39223;BME280;24936;46.328;11.026;2023-04-29T02:54:41;94191.28;;;6.54;88.54
39223;BME280;24936;46.328;11.026;2023-04-29T02:57:07;94180.66;;;6.56;88.30
39223;BME280;24936;46.328;11.026;2023-04-29T02:59:33;94185.00;;;6.23;89.95
39223;BME280;24936;46.328;11.026;2023-04-29T03:01:58;94190.91;;;6.36;89.79
39223;BME280;24936;46.328;11.026;2023-04-29T03:04:24;94184.97;;;6.34;89.77
39223;BME280;24936;46.328;11.026;2023-04-29T03:06:49;94191.63;;;6.38;89.66
39223;BME280;24936;46.328;11.026;2023-04-29T03:09:15;94180.00;;;6.42;89.91
39223;BME280;24936;46.328;11.026;2023-04-29T03:11:40;94191.41;;;6.30;90.10
39223;BME280;24936;46.328;11.026;2023-04-29T03:14:06;94186.66;;;6.12;90.58
39223;BME280;24936;46.328;11.026;2023-04-29T03:16:31;94180.63;;;6.12;90.89
39223;BME280;24936;46.328;11.026;2023-04-29T03:18:57;94172.16;;;6.31;90.92
39223;BME280;24936;46.328;11.026;2023-04-29T03:21:23;94172.16;;;6.31;90.94
39223;BME280;24936;46.328;11.026;2023-04-29T03:23:50;94165.66;;;6.25;91.58
39223;BME280;24936;46.328;11.026;2023-04-29T03:26:15;94166.56;;;6.36;91.32
39223;BME280;24936;46.328;11.026;2023-04-29T03:28:41;94171.63;;;6.49;91.16
39223;BME280;24936;46.328;11.026;2023-04-29T03:31:06;94171.63;;;6.49;91.36
39223;BME280;24936;46.328;11.026;2023-04-29T03:33:32;94170.44;;;6.53;91.37
39223;BME280;24936;46.328;11.026;2023-04-29T03:35:57;94172.50;;;6.49;91.91
39223;BME280;24936;46.328;11.026;2023-04-29T03:38:23;94177.16;;;6.78;91.86
39223;BME280;24936;46.328;11.026;2023-04-29T03:40:50;94182.53;;;6.65;91.31
39223;BME280;24936;46.328;11.026;2023-04-29T03:43:16;94172.88;;;6.77;90.26
39223;BME280;24936;46.328;11.026;2023-04-29T03:45:42;94165.47;;;6.94;90.86
39223;BME280;24936;46.328;11.026;2023-04-29T03:48:07;94158.53;;;6.71;91.16
39223;BME280;24936;46.328;11.026;2023-04-29T03:50:34;94147.44;;;6.79;90.95
39223;BME280;24936;46.328;11.026;2023-04-29T03:53:00;94144.44;;;6.84;90.84
39223;BME280;24936;46.328;11.026;2023-04-29T03:55:26;94139.97;;;6.75;91.05
39223;BME280;24936;46.328;11.026;2023-04-29T03:57:51;94141.88;;;6.72;91.26
39223;BME280;24936;46.328;11.026;2023-04-29T04:00:17;94153.53;;;6.68;91.37
39223;BME280;24936;46.328;11.026;2023-04-29T04:02:43;94156.22;;;6.46;92.26
39223;BME280;24936;46.328;11.026;2023-04-29T04:05:08;94163.97;;;6.36;92.87
39223;BME280;24936;46.328;11.026;2023-04-29T04:07:34;94159.56;;;6.25;92.55
39223;BME280;24936;46.328;11.026;2023-04-29T04:10:00;94156.75;;;6.17;92.52
39223;BME280;24936;46.328;11.026;2023-04-29T04:12:26;94157.09;;;6.01;92.82
39223;BME280;24936;46.328;11.026;2023-04-29T04:14:51;94162.06;;;5.92;93.42
39223;BME280;24936;46.328;11.026;2023-04-29T04:17:17;94162.41;;;5.88;93.64
39223;BME280;24936;46.328;11.026;2023-04-29T04:19:42;94165.41;;;5.83;93.85
39223;BME280;24936;46.328;11.026;2023-04-29T04:22:08;94171.19;;;5.75;94.28
39223;BME280;24936;46.328;11.026;2023-04-29T04:24:33;94180.22;;;5.82;94.16
39223;BME280;24936;46.328;11.026;2023-04-29T04:26:59;94178.44;;;5.94;94.39
39223;BME280;24936;46.328;11.026;2023-04-29T04:29:25;94173.38;;;6.04;93.71
39223;BME280;24936;46.328;11.026;2023-04-29T04:31:50;94164.81;;;5.91;94.08
39223;BME280;24936;46.328;11.026;2023-04-29T04:34:16;94178.31;;;5.85;94.69
39223;BME280;24936;46.328;11.026;2023-04-29T04:36:41;94174.31;;;5.92;94.82
39223;BME280;24936;46.328;11.026;2023-04-29T04:39:07;94178.84;;;6.01;94.40
39223;BME280;24936;46.328;11.026;2023-04-29T04:41:32;94178.09;;;5.88;94.89
39223;BME280;24936;46.328;11.026;2023-04-29T04:43:58;94180.63;;;6.12;95.32
39223;BME280;24936;46.328;11.026;2023-04-29T04:46:23;94185.94;;;6.22;94.74
39223;BME280;24936;46.328;11.026;2023-04-29T04:48:49;94182.63;;;6.31;95.19
39223;BME280;24936;46.328;11.026;2023-04-29T04:51:15;94188.88;;;6.51;94.46
39223;BME280;24936;46.328;11.026;2023-04-29T04:53:40;94187.78;;;6.65;93.27
39223;BME280;24936;46.328;11.026;2023-04-29T04:56:06;94188.22;;;6.82;91.82
39223;BME280;24936;46.328;11.026;2023-04-29T04:58:32;94181.97;;;6.94;90.70
39223;BME280;24936;46.328;11.026;2023-04-29T05:00:58;94182.88;;;7.16;90.03
39223;BME280;24936;46.328;11.026;2023-04-29T05:03:24;94186.31;;;7.38;89.88
39223;BME280;24936;46.328;11.026;2023-04-29T05:05:57;94187.81;;;7.52;90.12
39223;BME280;24936;46.328;11.026;2023-04-29T05:08:23;94191.56;;;7.38;90.49
39223;BME280;24936;46.328;11.026;2023-04-29T05:10:49;94192.03;;;7.31;90.20
39223;BME280;24936;46.328;11.026;2023-04-29T05:13:16;94185.13;;;7.42;89.67
39223;BME280;24936;46.328;11.026;2023-04-29T05:15:42;94183.63;;;7.49;90.06
39223;BME280;24936;46.328;11.026;2023-04-29T05:18:08;94174.13;;;7.48;90.22
39223;BME280;24936;46.328;11.026;2023-04-29T05:20:34;94167.50;;;7.44;90.11
39223;BME280;24936;46.328;11.026;2023-04-29T05:22:59;94183.44;;;7.83;90.13
39223;BME280;24936;46.328;11.026;2023-04-29T05:25:25;94170.13;;;7.75;89.80
39223;BME280;24936;46.328;11.026;2023-04-29T05:27:50;94175.69;;;7.81;89.73
39223;BME280;24936;46.328;11.026;2023-04-29T05:30:16;94173.91;;;7.82;88.82
39223;BME280;24936;46.328;11.026;2023-04-29T05:32:43;94169.44;;;8.04;88.37
39223;BME280;24936;46.328;11.026;2023-04-29T05:35:10;94180.63;;;8.37;86.23
39223;BME280;24936;46.328;11.026;2023-04-29T05:37:35;94174.22;;;8.30;85.49
39223;BME280;24936;46.328;11.026;2023-04-29T05:40:01;94170.88;;;8.59;86.32
39223;BME280;24936;46.328;11.026;2023-04-29T05:42:27;94161.78;;;8.53;83.65
39223;BME280;24936;46.328;11.026;2023-04-29T05:44:52;94177.97;;;8.78;83.73
39223;BME280;24936;46.328;11.026;2023-04-29T05:47:18;94181.88;;;9.03;82.92
39223;BME280;24936;46.328;11.026;2023-04-29T05:49:43;94173.31;;;9.21;82.89
39223;BME280;24936;46.328;11.026;2023-04-29T05:52:09;94172.63;;;9.18;82.40
39223;BME280;24936;46.328;11.026;2023-04-29T05:54:34;94174.28;;;9.20;81.65
39223;BME280;24936;46.328;11.026;2023-04-29T05:57:00;94182.00;;;9.21;81.52
39223;BME280;24936;46.328;11.026;2023-04-29T05:59:30;94188.66;;;9.35;81.74
39223;BME280;24936;46.328;11.026;2023-04-29T06:01:56;94188.38;;;9.38;80.76
39223;BME280;24936;46.328;11.026;2023-04-29T06:04:22;94183.25;;;9.56;81.24
39223;BME280;24936;46.328;11.026;2023-04-29T06:06:49;94182.13;;;9.59;81.03
39223;BME280;24936;46.328;11.026;2023-04-29T06:09:15;94186.53;;;9.68;79.35
39223;BME280;24936;46.328;11.026;2023-04-29T06:11:40;94194.72;;;9.75;79.00
39223;BME280;24936;46.328;11.026;2023-04-29T06:14:06;94189.84;;;9.80;78.98
39223;BME280;24936;46.328;11.026;2023-04-29T06:16:32;94182.59;;;10.02;77.51
39223;BME280;24936;46.328;11.026;2023-04-29T06:18:57;94185.75;;;10.05;76.01
39223;BME280;24936;46.328;11.026;2023-04-29T06:21:23;94185.63;;;10.07;76.82
39223;BME280;24936;46.328;11.026;2023-04-29T06:23:49;94189.19;;;10.16;76.34
39223;BME280;24936;46.328;11.026;2023-04-29T06:26:14;94189.78;;;10.09;76.02
39223;BME280;24936;46.328;11.026;2023-04-29T06:28:40;94185.75;;;10.15;76.56
39223;BME280;24936;46.328;11.026;2023-04-29T06:31:06;94184.16;;;10.32;78.24
39223;BME280;24936;46.328;11.026;2023-04-29T06:33:31;94176.66;;;10.37;79.26
39223;BME280;24936;46.328;11.026;2023-04-29T06:35:58;94171.59;;;10.54;77.95
39223;BME280;24936;46.328;11.026;2023-04-29T06:38:24;94169.44;;;10.67;77.69
39223;BME280;24936;46.328;11.026;2023-04-29T06:40:49;94165.94;;;10.77;77.24
39223;BME280;24936;46.328;11.026;2023-04-29T06:43:15;94163.00;;;10.80;76.55
39223;BME280;24936;46.328;11.026;2023-04-29T06:45:40;94165.34;;;10.83;77.44
39223;BME280;24936;46.328;11.026;2023-04-29T06:48:06;94164.34;;;10.84;76.48
39223;BME280;24936;46.328;11.026;2023-04-29T06:50:32;94162.41;;;10.86;75.94
39223;BME280;24936;46.328;11.026;2023-04-29T06:52:58;94167.53;;;10.88;75.85
39223;BME280;24936;46.328;11.026;2023-04-29T06:55:23;94168.81;;;10.83;75.53
39223;BME280;24936;46.328;11.026;2023-04-29T06:57:49;94168.44;;;10.96;74.25
39223;BME280;24936;46.328;11.026;2023-04-29T07:00:14;94178.72;;;10.90;73.46
39223;BME280;24936;46.328;11.026;2023-04-29T07:02:40;94174.47;;;11.07;74.09
39223;BME280;24936;46.328;11.026;2023-04-29T07:05:06;94164.88;;;10.69;74.92
39223;BME280;24936;46.328;11.026;2023-04-29T07:07:32;94170.84;;;10.90;76.65
39223;BME280;24936;46.328;11.026;2023-04-29T07:09:57;94172.88;;;11.14;75.98
39223;BME280;24936;46.328;11.026;2023-04-29T07:12:23;94171.91;;;10.79;77.80
39223;BME280;24936;46.328;11.026;2023-04-29T07:14:48;94162.78;;;10.45;79.31
39223;BME280;24936;46.328;11.026;2023-04-29T07:17:13;94173.75;;;10.40;80.52
39223;BME280;24936;46.328;11.026;2023-04-29T07:19:39;94175.28;;;10.43;80.14
39223;BME280;24936;46.328;11.026;2023-04-29T07:22:05;94180.94;;;10.38;80.55
39223;BME280;24936;46.328;11.026;2023-04-29T07:24:30;94181.06;;;10.47;80.08
39223;BME280;24936;46.328;11.026;2023-04-29T07:26:56;94180.22;;;10.46;79.63
39223;BME280;24936;46.328;11.026;2023-04-29T07:29:21;94178.63;;;10.63;80.08
39223;BME280;24936;46.328;11.026;2023-04-29T07:31:46;94177.28;;;10.77;79.88
39223;BME280;24936;46.328;11.026;2023-04-29T07:34:12;94186.19;;;10.94;78.84
39223;BME280;24936;46.328;11.026;2023-04-29T07:36:38;94180.94;;;11.12;77.29
39223;BME280;24936;46.328;11.026;2023-04-29T07:39:03;94179.22;;;11.21;78.00
39223;BME280;24936;46.328;11.026;2023-04-29T07:41:29;94175.75;;;11.21;76.50
39223;BME280;24936;46.328;11.026;2023-04-29T07:43:55;94183.72;;;11.11;75.32
39223;BME280;24936;46.328;11.026;2023-04-29T07:46:20;94175.22;;;11.35;74.52
39223;BME280;24936;46.328;11.026;2023-04-29T07:48:46;94173.97;;;11.21;75.22
39223;BME280;24936;46.328;11.026;2023-04-29T07:51:12;94174.09;;;11.20;75.33
39223;BME280;24936;46.328;11.026;2023-04-29T07:53:39;94171.31;;;11.21;74.61
39223;BME280;24936;46.328;11.026;2023-04-29T07:56:05;94164.16;;;11.13;74.39
39223;BME280;24936;46.328;11.026;2023-04-29T07:58:31;94166.50;;;11.35;75.48
39223;BME280;24936;46.328;11.026;2023-04-29T08:01:04;94177.69;;;11.55;75.15
39223;BME280;24936;46.328;11.026;2023-04-29T08:03:29;94177.91;;;11.88;74.18
39223;BME280;24936;46.328;11.026;2023-04-29T08:06:00;94172.31;;;12.09;73.19
39223;BME280;24936;46.328;11.026;2023-04-29T08:08:25;94167.13;;;12.26;70.15
39223;BME280;24936;46.328;11.026;2023-04-29T08:10:51;94169.59;;;12.27;70.09
39223;BME280;24936;46.328;11.026;2023-04-29T08:13:16;94163.28;;;12.46;69.21
39223;BME280;24936;46.328;11.026;2023-04-29T08:15:42;94168.69;;;12.45;67.01
39223;BME280;24936;46.328;11.026;2023-04-29T08:18:07;94172.19;;;12.53;68.01
39223;BME280;24936;46.328;11.026;2023-04-29T08:20:33;94167.28;;;12.59;68.04
39223;BME280;24936;46.328;11.026;2023-04-29T08:22:58;94173.09;;;12.36;69.45
39223;BME280;24936;46.328;11.026;2023-04-29T08:25:25;94174.56;;;12.30;70.63
39223;BME280;24936;46.328;11.026;2023-04-29T08:27:51;94172.88;;;12.56;70.33
39223;BME280;24936;46.328;11.026;2023-04-29T08:30:17;94169.31;;;12.81;71.35
39223;BME280;24936;46.328;11.026;2023-04-29T08:32:42;94171.50;;;12.94;70.44
39223;BME280;24936;46.328;11.026;2023-04-29T08:35:08;94175.97;;;12.94;68.90
39223;BME280;24936;46.328;11.026;2023-04-29T08:37:34;94177.50;;;13.21;69.75
39223;BME280;24936;46.328;11.026;2023-04-29T08:39:59;94164.34;;;13.46;68.60
39223;BME280;24936;46.328;11.026;2023-04-29T08:42:35;94167.44;;;13.33;70.01
39223;BME280;24936;46.328;11.026;2023-04-29T08:45:02;94170.75;;;13.27;68.82
39223;BME280;24936;46.328;11.026;2023-04-29T08:47:35;94158.22;;;13.54;68.93
39223;BME280;24936;46.328;11.026;2023-04-29T08:50:03;94155.38;;;13.80;68.37
39223;BME280;24936;46.328;11.026;2023-04-29T08:52:32;94161.19;;;13.59;68.46
39223;BME280;24936;46.328;11.026;2023-04-29T08:54:59;94157.72;;;13.75;67.09
39223;BME280;24936;46.328;11.026;2023-04-29T08:57:27;94152.94;;;13.79;66.21
39223;BME280;24936;46.328;11.026;2023-04-29T08:59:54;94146.94;;;14.01;66.92
39223;BME280;24936;46.328;11.026;2023-04-29T09:02:20;94139.97;;;14.09;66.14
39223;BME280;24936;46.328;11.026;2023-04-29T09:05:04;94148.16;;;14.38;64.85
39223;BME280;24936;46.328;11.026;2023-04-29T09:07:34;94144.69;;;14.38;63.71
39223;BME280;24936;46.328;11.026;2023-04-29T09:10:00;94145.66;;;14.37;63.96
39223;BME280;24936;46.328;11.026;2023-04-29T09:12:26;94137.66;;;14.62;64.14
39223;BME280;24936;46.328;11.026;2023-04-29T09:14:51;94138.81;;;14.67;61.89
39223;BME280;24936;46.328;11.026;2023-04-29T09:17:17;94141.34;;;14.92;63.24
39223;BME280;24936;46.328;11.026;2023-04-29T09:19:43;94144.13;;;15.46;59.53
39223;BME280;24936;46.328;11.026;2023-04-29T09:22:08;94141.06;;;15.57;61.48
39223;BME280;24936;46.328;11.026;2023-04-29T09:24:35;94141.31;;;15.62;59.01
39223;BME280;24936;46.328;11.026;2023-04-29T09:27:02;94132.91;;;15.58;60.58
39223;BME280;24936;46.328;11.026;2023-04-29T09:29:28;94128.34;;;15.52;61.50
39223;BME280;24936;46.328;11.026;2023-04-29T09:31:55;94123.03;;;15.52;59.86
39223;BME280;24936;46.328;11.026;2023-04-29T09:34:35;94122.81;;;15.77;60.11
39223;BME280;24936;46.328;11.026;2023-04-29T09:37:02;94121.84;;;15.93;58.98
39223;BME280;24936;46.328;11.026;2023-04-29T09:39:37;94114.88;;;17.19;57.58
39223;BME280;24936;46.328;11.026;2023-04-29T09:42:03;94117.50;;;17.62;56.57
39223;BME280;24936;46.328;11.026;2023-04-29T09:44:29;94114.91;;;18.54;55.17
39223;BME280;24936;46.328;11.026;2023-04-29T09:49:41;94105.38;;;19.55;53.54
39223;BME280;24936;46.328;11.026;2023-04-29T09:54:34;94102.81;;;20.61;49.18
39223;BME280;24936;46.328;11.026;2023-04-29T09:57:01;94093.28;;;20.79;52.84
39223;BME280;24936;46.328;11.026;2023-04-29T09:59:30;94090.19;;;21.53;45.17
39223;BME280;24936;46.328;11.026;2023-04-29T10:01:57;94086.06;;;21.25;49.29
39223;BME280;24936;46.328;11.026;2023-04-29T10:04:24;94078.06;;;22.08;45.65
39223;BME280;24936;46.328;11.026;2023-04-29T10:06:53;94075.66;;;21.74;46.63
39223;BME280;24936;46.328;11.026;2023-04-29T10:09:20;94071.09;;;21.49;46.73
39223;BME280;24936;46.328;11.026;2023-04-29T10:11:52;94073.16;;;21.79;43.56
39223;BME280;24936;46.328;11.026;2023-04-29T10:14:22;94066.09;;;21.85;45.98
39223;BME280;24936;46.328;11.026;2023-04-29T10:17:06;94070.13;;;21.94;45.77
39223;BME280;24936;46.328;11.026;2023-04-29T10:19:38;94063.28;;;21.80;45.24
39223;BME280;24936;46.328;11.026;2023-04-29T10:22:08;94051.69;;;21.86;42.46
39223;BME280;24936;46.328;11.026;2023-04-29T10:24:38;94053.47;;;21.35;44.66
39223;BME280;24936;46.328;11.026;2023-04-29T10:27:08;94044.94;;;22.21;44.51
39223;BME280;24936;46.328;11.026;2023-04-29T10:29:37;94046.09;;;22.99;44.76
39223;BME280;24936;46.328;11.026;2023-04-29T10:32:06;94037.44;;;22.85;43.29
39223;BME280;24936;46.328;11.026;2023-04-29T10:34:36;94032.06;;;22.85;42.09
39223;BME280;24936;46.328;11.026;2023-04-29T10:37:08;94034.44;;;22.00;45.64
39223;BME280;24936;46.328;11.026;2023-04-29T10:45:30;94014.59;;;21.64;46.00
39223;BME280;24936;46.328;11.026;2023-04-29T10:53:16;94003.56;;;23.03;44.46
39223;BME280;24936;46.328;11.026;2023-04-29T10:55:46;93999.78;;;23.23;42.65
39223;BME280;24936;46.328;11.026;2023-04-29T11:01:00;93994.59;;;23.75;40.21
39223;BME280;24936;46.328;11.026;2023-04-29T11:03:45;93997.53;;;23.86;43.27
39223;BME280;24936;46.328;11.026;2023-04-29T11:06:11;93984.16;;;24.50;38.33
39223;BME280;24936;46.328;11.026;2023-04-29T11:08:37;93985.09;;;24.44;41.55
39223;BME280;24936;46.328;11.026;2023-04-29T11:11:04;93972.97;;;24.41;38.56
39223;BME280;24936;46.328;11.026;2023-04-29T11:13:31;93967.66;;;24.47;37.81
39223;BME280;24936;46.328;11.026;2023-04-29T11:16:11;93964.78;;;25.91;36.20
39223;BME280;24936;46.328;11.026;2023-04-29T11:19:06;93966.06;;;26.06;37.32
39223;BME280;24936;46.328;11.026;2023-04-29T11:21:35;93961.41;;;25.45;34.78
39223;BME280;24936;46.328;11.026;2023-04-29T11:24:02;93956.16;;;24.63;35.93
39223;BME280;24936;46.328;11.026;2023-04-29T11:26:34;93946.72;;;25.70;36.25
39223;BME280;24936;46.328;11.026;2023-04-29T11:29:00;93951.94;;;25.59;36.16
39223;BME280;24936;46.328;11.026;2023-04-29T11:31:32;93948.09;;;24.92;39.00
39223;BME280;24936;46.328;11.026;2023-04-29T11:33:58;93932.94;;;25.88;35.28
39223;BME280;24936;46.328;11.026;2023-04-29T11:36:24;93946.97;;;25.51;35.24
39223;BME280;24936;46.328;11.026;2023-04-29T11:38:51;93930.16;;;25.44;35.50
39223;BME280;24936;46.328;11.026;2023-04-29T11:41:17;93932.72;;;25.90;33.33
39223;BME280;24936;46.328;11.026;2023-04-29T11:43:46;93917.78;;;26.44;35.22
39223;BME280;24936;46.328;11.026;2023-04-29T11:46:13;93929.94;;;26.46;35.11
39223;BME280;24936;46.328;11.026;2023-04-29T11:48:45;93925.00;;;26.38;34.91
39223;BME280;24936;46.328;11.026;2023-04-29T11:51:12;93927.47;;;26.00;32.78
39223;BME280;24936;46.328;11.026;2023-04-29T11:53:38;93920.47;;;26.66;32.99
39223;BME280;24936;46.328;11.026;2023-04-29T11:56:03;93923.22;;;25.48;33.71
39223;BME280;24936;46.328;11.026;2023-04-29T11:58:29;93911.94;;;25.68;35.85
39223;BME280;24936;46.328;11.026;2023-04-29T12:00:57;93915.84;;;25.60;34.91
39223;BME280;24936;46.328;11.026;2023-04-29T12:03:24;93904.84;;;26.01;35.89
39223;BME280;24936;46.328;11.026;2023-04-29T12:05:51;93912.16;;;26.73;32.85
39223;BME280;24936;46.328;11.026;2023-04-29T12:08:24;93904.00;;;26.18;34.50
39223;BME280;24936;46.328;11.026;2023-04-29T12:10:50;93904.13;;;27.05;31.24
39223;BME280;24936;46.328;11.026;2023-04-29T12:13:17;93903.47;;;26.93;33.14
39223;BME280;24936;46.328;11.026;2023-04-29T12:15:47;93895.59;;;27.51;32.36
39223;BME280;24936;46.328;11.026;2023-04-29T12:18:16;93895.91;;;27.22;33.89
39223;BME280;24936;46.328;11.026;2023-04-29T12:20:42;93897.59;;;27.33;34.03
39223;BME280;24936;46.328;11.026;2023-04-29T12:23:19;93889.78;;;26.50;32.55
39223;BME280;24936;46.328;11.026;2023-04-29T12:25:56;93881.63;;;27.27;31.89
39223;BME280;24936;46.328;11.026;2023-04-29T12:28:22;93887.78;;;28.03;33.73
39223;BME280;24936;46.328;11.026;2023-04-29T12:30:49;93871.00;;;28.01;30.48
39223;BME280;24936;46.328;11.026;2023-04-29T12:33:20;93880.13;;;27.09;31.14
39223;BME280;24936;46.328;11.026;2023-04-29T12:35:49;93879.25;;;26.04;34.92
39223;BME280;24936;46.328;11.026;2023-04-29T12:38:19;93872.03;;;27.84;33.43
39223;BME280;24936;46.328;11.026;2023-04-29T12:40:45;93863.47;;;28.77;29.99
39223;BME280;24936;46.328;11.026;2023-04-29T12:43:10;93859.94;;;27.49;31.90
39223;BME280;24936;46.328;11.026;2023-04-29T12:45:37;93859.50;;;28.16;32.11
39223;BME280;24936;46.328;11.026;2023-04-29T12:48:03;93856.75;;;28.11;30.84
39223;BME280;24936;46.328;11.026;2023-04-29T12:50:36;93845.53;;;27.06;30.02
39223;BME280;24936;46.328;11.026;2023-04-29T12:53:07;93842.75;;;26.68;31.24
39223;BME280;24936;46.328;11.026;2023-04-29T12:55:34;93839.09;;;25.24;33.73
39223;BME280;24936;46.328;11.026;2023-04-29T12:58:03;93843.97;;;24.76;35.61
39223;BME280;24936;46.328;11.026;2023-04-29T13:00:30;93842.25;;;26.16;32.67
39223;BME280;24936;46.328;11.026;2023-04-29T13:02:56;93835.38;;;26.80;30.68
39223;BME280;24936;46.328;11.026;2023-04-29T13:05:21;93834.25;;;26.26;31.36
39223;BME280;24936;46.328;11.026;2023-04-29T13:07:48;93818.66;;;26.29;33.50
39223;BME280;24936;46.328;11.026;2023-04-29T13:10:13;93818.97;;;26.60;33.07
39223;BME280;24936;46.328;11.026;2023-04-29T13:12:39;93821.47;;;26.39;34.15
39223;BME280;24936;46.328;11.026;2023-04-29T13:15:06;93816.72;;;26.51;33.91
39223;BME280;24936;46.328;11.026;2023-04-29T13:17:35;93807.75;;;25.96;34.48
39223;BME280;24936;46.328;11.026;2023-04-29T13:20:03;93809.81;;;25.67;32.84
39223;BME280;24936;46.328;11.026;2023-04-29T13:22:28;93803.41;;;25.50;32.99
39223;BME280;24936;46.328;11.026;2023-04-29T13:24:54;93801.97;;;25.87;33.89
39223;BME280;24936;46.328;11.026;2023-04-29T13:27:19;93809.16;;;25.20;33.43